Time;durP1;ratioP1;P1;durP2;ratioP2;P2;SDS_P1;SDS_P2;PMS_P1;PMS_P2;Temp;Humidity;BMP_temperature;BMP_pressure;BME280_temperature;BME280_humidity;BME280_pressure;Samples;Min_cycle;Max_cycle;Signal;HPM_P1;HPM_P2
2021/03/12 00:00:58;;;;;;;;;;;5.20;99.90;;;;;;5090504;28;19961;-76
2021/03/12 00:03:27;;;;;;;;;;;5.20;99.90;;;;;;5092410;28;19908;-76
2021/03/12 00:05:58;;;;;;;;;;;5.30;99.90;;;;;;5090542;28;19912;-76
2021/03/12 00:08:25;;;;;;;;;;;5.30;99.90;;;;;;5090304;28;19909;-75
2021/03/12 00:10:51;;;;;;;;;;;5.30;99.90;;;;;;5082872;28;20280;-75
2021/03/12 00:13:19;;;;;;;;;;;5.30;99.90;;;;;;5091614;28;19958;-75
2021/03/12 00:15:44;;;;;;;;;;;5.40;99.90;;;;;;5090342;28;20026;-76
2021/03/12 00:18:10;;;;;;;;;;;5.40;99.90;;;;;;5091852;28;20388;-75
2021/03/12 00:20:37;;;;;;;;;;;5.40;99.90;;;;;;5090578;28;19955;-75
2021/03/12 00:23:03;;;;;;;;;;;5.50;99.90;;;;;;5091733;28;20372;-76
2021/03/12 00:25:36;;;;;;;;;;;5.50;99.90;;;;;;5090380;28;19908;-75
2021/03/12 00:28:02;;;;;;;;;;;5.50;99.90;;;;;;5081241;28;20405;-76
2021/03/12 00:30:28;;;;;;;;;;;5.50;99.90;;;;;;5083700;28;19908;-75
2021/03/12 00:32:53;;;;;;;;;;;5.50;99.90;;;;;;5091597;28;20284;-75
2021/03/12 00:35:19;;;;;;;;;;;5.50;99.90;;;;;;5091535;28;19927;-75
2021/03/12 00:37:44;;;;;;;;;;;5.50;99.90;;;;;;5089985;28;19915;-75
2021/03/12 00:40:14;;;;;;;;;;;5.50;99.90;;;;;;5084877;28;19935;-76
2021/03/12 00:42:40;;;;;;;;;;;5.50;99.90;;;;;;5093889;28;20281;-75
2021/03/12 00:45:07;;;;;;;;;;;5.60;99.90;;;;;;5110636;28;19907;-76
2021/03/12 00:47:33;;;;;;;;;;;5.50;99.90;;;;;;5111639;28;19914;-75
2021/03/12 00:49:58;;;;;;;;;;;5.60;99.90;;;;;;5110491;28;19938;-76
2021/03/12 00:52:24;;;;;;;;;;;5.60;99.90;;;;;;5110292;28;20379;-76
2021/03/12 00:54:49;;;;;;;;;;;5.60;99.90;;;;;;5110468;28;19907;-76
2021/03/12 00:57:14;;;;;;;;;;;5.60;99.90;;;;;;5103592;28;19912;-76
2021/03/12 00:59:40;;;;;;;;;;;5.60;99.90;;;;;;5080787;28;20010;-75
2021/03/12 01:02:06;;;;;;;;;;;5.60;99.90;;;;;;5089766;28;19908;-75
2021/03/12 01:04:31;;;;;;;;;;;5.60;99.90;;;;;;5090155;28;19912;-75
2021/03/12 01:06:56;;;;;;;;;;;5.60;99.90;;;;;;5089803;28;20349;-75
2021/03/12 01:09:22;;;;;;;;;;;5.60;99.90;;;;;;5089769;28;20010;-76
2021/03/12 01:11:47;;;;;;;;;;;5.60;99.90;;;;;;5094033;28;19912;-75
2021/03/12 01:14:13;;;;;;;;;;;5.60;99.90;;;;;;5111259;28;20276;-76
2021/03/12 01:16:39;;;;;;;;;;;5.60;99.90;;;;;;5109785;28;20344;-75
2021/03/12 01:19:05;;;;;;;;;;;5.60;99.90;;;;;;5110234;28;20240;-76
2021/03/12 01:21:30;;;;;;;;;;;5.60;99.90;;;;;;5114216;28;19911;-76
2021/03/12 01:23:56;;;;;;;;;;;5.70;99.90;;;;;;5114020;28;19992;-76
2021/03/12 01:26:21;;;;;;;;;;;5.70;99.90;;;;;;5114946;28;19912;-76
2021/03/12 01:28:47;;;;;;;;;;;5.70;99.90;;;;;;5115406;28;20022;-76
2021/03/12 01:31:12;;;;;;;;;;;5.70;99.90;;;;;;5113893;28;19934;-76
2021/03/12 01:33:38;;;;;;;;;;;5.80;99.90;;;;;;5115232;28;19954;-76
2021/03/12 01:36:03;;;;;;;;;;;5.80;99.90;;;;;;5113532;28;19916;-76
2021/03/12 01:38:29;;;;;;;;;;;5.80;99.90;;;;;;5113939;28;19908;-75
2021/03/12 01:40:55;;;;;;;;;;;5.80;99.90;;;;;;5100639;28;19908;-76
2021/03/12 01:43:20;;;;;;;;;;;5.70;99.90;;;;;;5094796;28;20346;-76
2021/03/12 01:45:48;;;;;;;;;;;5.70;99.90;;;;;;5094400;28;20028;-76
2021/03/12 01:48:17;;;;;;;;;;;5.70;99.90;;;;;;5094490;28;20285;-75
2021/03/12 01:50:44;;;;;;;;;;;5.70;99.90;;;;;;5094426;28;19915;-76
2021/03/12 01:53:11;;;;;;;;;;;5.70;99.90;;;;;;5093049;28;19923;-76
2021/03/12 01:55:37;;;;;;;;;;;5.60;99.90;;;;;;5094790;28;20395;-76
2021/03/12 01:58:03;;;;;;;;;;;5.60;99.90;;;;;;5093080;28;19909;-76
2021/03/12 02:00:29;;;;;;;;;;;5.60;99.90;;;;;;5093144;28;19922;-76
2021/03/12 02:02:55;;;;;;;;;;;5.60;99.90;;;;;;5093155;28;19915;-75
2021/03/12 02:05:21;;;;;;;;;;;5.60;99.90;;;;;;5092977;28;20007;-76
2021/03/12 02:07:46;;;;;;;;;;;5.60;99.90;;;;;;5092496;28;19994;-76
2021/03/12 02:10:16;;;;;;;;;;;5.60;99.90;;;;;;5087151;28;20321;-75
2021/03/12 02:12:46;;;;;;;;;;;5.60;99.90;;;;;;5084661;28;19941;-77
2021/03/12 02:15:14;;;;;;;;;;;5.60;99.90;;;;;;5094256;28;19916;-77
2021/03/12 02:17:43;;;;;;;;;;;5.60;99.90;;;;;;5094115;28;19944;-77
2021/03/12 02:20:09;;;;;;;;;;;5.60;99.90;;;;;;5094120;28;19947;-76
2021/03/12 02:22:35;;;;;;;;;;;5.60;99.90;;;;;;5092582;28;20380;-76
2021/03/12 02:25:10;;;;;;;;;;;5.60;99.90;;;;;;5092875;28;20422;-77
2021/03/12 02:27:36;;;;;;;;;;;5.60;99.90;;;;;;5090775;28;19943;-77
2021/03/12 02:30:02;;;;;;;;;;;5.60;99.90;;;;;;5082280;28;20336;-77
2021/03/12 02:32:37;;;;;;;;;;;5.60;99.90;;;;;;5089851;28;19912;-77
2021/03/12 02:35:05;;;;;;;;;;;5.50;99.90;;;;;;5092379;28;19920;-77
2021/03/12 02:37:31;;;;;;;;;;;5.50;99.90;;;;;;5093197;28;19909;-77
2021/03/12 02:39:58;;;;;;;;;;;5.50;99.90;;;;;;5087792;28;19909;-76
2021/03/12 02:42:24;;;;;;;;;;;5.40;99.90;;;;;;5101275;28;19908;-77
2021/03/12 02:44:50;;;;;;;;;;;5.40;99.90;;;;;;5114788;28;20265;-76
2021/03/12 02:47:22;;;;;;;;;;;5.30;99.90;;;;;;5112654;28;19947;-76
2021/03/12 02:49:48;;;;;;;;;;;5.30;99.90;;;;;;5112823;28;19953;-77
2021/03/12 02:52:14;;;;;;;;;;;5.30;99.90;;;;;;5111813;28;19955;-76
2021/03/12 02:54:41;;;;;;;;;;;5.20;99.90;;;;;;5113087;28;19930;-76
2021/03/12 02:57:07;;;;;;;;;;;5.20;99.90;;;;;;5105830;28;19912;-76
2021/03/12 02:59:32;;;;;;;;;;;5.20;99.90;;;;;;5087382;28;19908;-77
2021/03/12 03:01:58;;;;;;;;;;;5.20;99.90;;;;;;5093413;28;19937;-77
2021/03/12 03:04:24;;;;;;;;;;;5.20;99.90;;;;;;5093576;28;19916;-77
2021/03/12 03:06:50;;;;;;;;;;;5.20;99.90;;;;;;5091774;28;20376;-77
2021/03/12 03:09:18;;;;;;;;;;;5.10;99.90;;;;;;5092119;28;19914;-77
2021/03/12 03:11:44;;;;;;;;;;;5.10;99.90;;;;;;5090043;28;19934;-77
2021/03/12 03:14:10;;;;;;;;;;;5.10;99.90;;;;;;5108344;28;19911;-76
2021/03/12 03:16:36;;;;;;;;;;;5.10;99.90;;;;;;5089218;28;20415;-76
2021/03/12 03:19:03;;;;;;;;;;;5.10;99.90;;;;;;5086040;28;19912;-76
2021/03/12 03:21:30;;;;;;;;;;;5.20;99.90;;;;;;5091484;28;19908;-77
2021/03/12 03:23:55;;;;;;;;;;;5.20;99.90;;;;;;5091915;28;19908;-77
2021/03/12 03:26:21;;;;;;;;;;;5.10;99.90;;;;;;5091585;28;19923;-76
2021/03/12 03:28:47;;;;;;;;;;;5.10;99.90;;;;;;5091854;28;20373;-76
2021/03/12 03:31:12;;;;;;;;;;;5.10;99.90;;;;;;5092753;28;19922;-77
2021/03/12 03:33:38;;;;;;;;;;;5.10;99.90;;;;;;5091540;28;19908;-77
2021/03/12 03:36:03;;;;;;;;;;;5.10;99.90;;;;;;5091086;28;20185;-77
2021/03/12 03:38:30;;;;;;;;;;;5.10;99.90;;;;;;5091073;28;19908;-76
2021/03/12 03:40:55;;;;;;;;;;;5.10;99.90;;;;;;5090025;28;20383;-76
2021/03/12 03:43:22;;;;;;;;;;;5.10;99.90;;;;;;5091944;28;19977;-76
2021/03/12 03:45:48;;;;;;;;;;;5.10;99.90;;;;;;5090469;28;19916;-76
2021/03/12 03:48:14;;;;;;;;;;;5.00;99.90;;;;;;5092601;28;19915;-77
2021/03/12 03:50:40;;;;;;;;;;;5.00;99.90;;;;;;5091218;28;19936;-77
2021/03/12 03:53:06;;;;;;;;;;;5.00;99.90;;;;;;5092581;28;19912;-77
2021/03/12 03:55:32;;;;;;;;;;;5.00;99.90;;;;;;5092480;28;19964;-77
2021/03/12 03:57:59;;;;;;;;;;;5.00;99.90;;;;;;5091050;28;19908;-77
2021/03/12 04:00:25;;;;;;;;;;;4.90;99.90;;;;;;5090861;28;19930;-77
2021/03/12 04:02:50;;;;;;;;;;;5.00;99.90;;;;;;5092579;28;19908;-77
2021/03/12 04:05:16;;;;;;;;;;;5.00;99.90;;;;;;5092620;28;20578;-77
2021/03/12 04:07:42;;;;;;;;;;;5.00;99.90;;;;;;5090453;28;19912;-77
2021/03/12 04:10:08;;;;;;;;;;;5.00;99.90;;;;;;5085732;28;19909;-76
2021/03/12 04:12:36;;;;;;;;;;;5.00;99.90;;;;;;5089603;28;19952;-77
2021/03/12 04:15:02;;;;;;;;;;;5.00;99.90;;;;;;5090150;28;19958;-76
2021/03/12 04:17:28;;;;;;;;;;;5.00;99.90;;;;;;5090278;28;19912;-77
2021/03/12 04:19:54;;;;;;;;;;;5.10;99.90;;;;;;5090645;28;19931;-77
2021/03/12 04:22:20;;;;;;;;;;;5.10;99.90;;;;;;5090520;28;19911;-76
2021/03/12 04:24:46;;;;;;;;;;;5.10;99.90;;;;;;5091749;28;19962;-77
2021/03/12 04:27:12;;;;;;;;;;;5.10;99.90;;;;;;5090170;28;19909;-76
2021/03/12 04:29:38;;;;;;;;;;;5.00;99.90;;;;;;5081048;28;20266;-76
2021/03/12 04:32:04;;;;;;;;;;;5.10;99.90;;;;;;5088218;28;19916;-76
2021/03/12 04:34:29;;;;;;;;;;;5.00;99.90;;;;;;5090236;28;20433;-77
2021/03/12 04:36:55;;;;;;;;;;;5.00;99.90;;;;;;5089954;28;19915;-77
2021/03/12 04:39:21;;;;;;;;;;;5.00;99.90;;;;;;5091631;28;19909;-76
2021/03/12 04:41:47;;;;;;;;;;;5.00;99.90;;;;;;5083018;28;19908;-77
2021/03/12 04:44:13;;;;;;;;;;;4.90;99.90;;;;;;5091144;28;19912;-76
2021/03/12 04:46:39;;;;;;;;;;;4.90;99.90;;;;;;5089651;28;19994;-77
2021/03/12 04:49:09;;;;;;;;;;;4.80;99.90;;;;;;5090416;28;19951;-77
2021/03/12 04:51:35;;;;;;;;;;;4.80;99.90;;;;;;5089987;28;19911;-77
2021/03/12 04:54:01;;;;;;;;;;;4.70;99.90;;;;;;5090358;28;20344;-77
2021/03/12 04:56:26;;;;;;;;;;;4.70;99.90;;;;;;5089302;28;20019;-76
2021/03/12 04:58:52;;;;;;;;;;;4.60;99.90;;;;;;5077680;28;19941;-76
2021/03/12 05:01:18;;;;;;;;;;;4.60;99.90;;;;;;5087162;28;19998;-75
2021/03/12 05:03:44;;;;;;;;;;;4.60;99.90;;;;;;5091770;28;19908;-77
2021/03/12 05:06:10;;;;;;;;;;;4.60;99.90;;;;;;5090348;28;20384;-77
2021/03/12 05:08:36;;;;;;;;;;;4.50;99.90;;;;;;5092262;28;20384;-77
2021/03/12 05:11:03;;;;;;;;;;;4.50;99.90;;;;;;5083556;28;19950;-77
2021/03/12 05:13:28;;;;;;;;;;;4.40;99.90;;;;;;5089752;28;19927;-76
2021/03/12 05:15:54;;;;;;;;;;;4.40;99.90;;;;;;5091664;28;19908;-77
2021/03/12 05:18:20;;;;;;;;;;;4.40;99.90;;;;;;5089878;28;19908;-77
2021/03/12 05:20:46;;;;;;;;;;;4.40;99.90;;;;;;5091481;28;19915;-76
2021/03/12 05:23:12;;;;;;;;;;;4.30;99.90;;;;;;5091476;28;20258;-77
2021/03/12 05:25:38;;;;;;;;;;;4.20;99.90;;;;;;5089535;28;19920;-77
2021/03/12 05:28:04;;;;;;;;;;;4.10;99.90;;;;;;5089771;28;19951;-77
2021/03/12 05:30:29;;;;;;;;;;;4.10;99.90;;;;;;5090948;28;20002;-77
2021/03/12 05:32:55;;;;;;;;;;;4.10;99.90;;;;;;5091609;28;19958;-77
2021/03/12 05:35:20;;;;;;;;;;;4.00;99.90;;;;;;5089882;28;20281;-77
2021/03/12 05:37:46;;;;;;;;;;;4.10;99.90;;;;;;5089851;28;19908;-76
2021/03/12 05:40:11;;;;;;;;;;;4.10;99.90;;;;;;5084764;28;19919;-77
2021/03/12 05:42:38;;;;;;;;;;;4.10;99.90;;;;;;5088986;28;19915;-77
2021/03/12 05:45:04;;;;;;;;;;;4.10;99.90;;;;;;5090069;28;19908;-77
2021/03/12 05:47:30;;;;;;;;;;;4.20;99.90;;;;;;5089403;28;19908;-77
2021/03/12 05:49:58;;;;;;;;;;;4.20;99.90;;;;;;5089642;28;20003;-77
2021/03/12 05:52:23;;;;;;;;;;;4.20;99.90;;;;;;5090962;28;19912;-77
2021/03/12 05:54:49;;;;;;;;;;;4.20;99.90;;;;;;5091220;28;19930;-76
2021/03/12 05:57:15;;;;;;;;;;;4.10;99.90;;;;;;5089504;28;20372;-77
2021/03/12 05:59:40;;;;;;;;;;;4.10;99.90;;;;;;5090899;28;19956;-77
2021/03/12 06:02:06;;;;;;;;;;;4.00;99.90;;;;;;5091230;28;19915;-77
2021/03/12 06:04:31;;;;;;;;;;;4.00;99.90;;;;;;5090203;28;20002;-76
2021/03/12 06:06:57;;;;;;;;;;;4.00;99.90;;;;;;5089751;28;19930;-77
2021/03/12 06:09:22;;;;;;;;;;;3.90;99.90;;;;;;5093427;28;19954;-77
2021/03/12 06:11:52;;;;;;;;;;;3.80;99.90;;;;;;5085678;28;20344;-76
2021/03/12 06:14:17;;;;;;;;;;;3.80;99.90;;;;;;5094580;28;19957;-77
2021/03/12 06:16:49;;;;;;;;;;;3.80;99.90;;;;;;5094343;28;19908;-77
2021/03/12 06:19:15;;;;;;;;;;;3.80;99.90;;;;;;5094537;28;19954;-76
2021/03/12 06:21:42;;;;;;;;;;;3.70;99.90;;;;;;5093410;28;20262;-77
2021/03/12 06:24:26;;;;;;;;;;;3.70;99.90;;;;;;5093578;28;19922;-77
2021/03/12 06:26:52;;;;;;;;;;;3.70;99.90;;;;;;5093504;28;19934;-77
2021/03/12 06:29:17;;;;;;;;;;;3.70;99.90;;;;;;5083765;28;19908;-77
2021/03/12 06:31:52;;;;;;;;;;;3.80;99.90;;;;;;5084628;28;19916;-77
2021/03/12 06:34:18;;;;;;;;;;;3.80;99.90;;;;;;5094141;28;19946;-77
2021/03/12 06:36:44;;;;;;;;;;;3.80;99.90;;;;;;5093903;28;20635;-77
2021/03/12 06:39:09;;;;;;;;;;;3.90;99.90;;;;;;5092065;28;20410;-77
2021/03/12 06:41:36;;;;;;;;;;;4.00;99.90;;;;;;5090429;28;19907;-77
2021/03/12 06:44:21;;;;;;;;;;;4.20;99.90;;;;;;5091996;28;19917;-77
2021/03/12 06:46:46;;;;;;;;;;;4.30;99.90;;;;;;5091265;28;19908;-77
2021/03/12 06:49:12;;;;;;;;;;;4.40;99.90;;;;;;5092814;28;19912;-77
2021/03/12 06:51:51;;;;;;;;;;;4.40;99.90;;;;;;5091590;28;20376;-77
2021/03/12 06:54:17;;;;;;;;;;;4.50;99.90;;;;;;5092012;28;19915;-76
2021/03/12 06:56:42;;;;;;;;;;;4.50;99.90;;;;;;5091839;28;19912;-75
2021/03/12 06:59:08;;;;;;;;;;;4.50;99.90;;;;;;5085183;28;19940;-77
2021/03/12 07:01:33;;;;;;;;;;;4.50;99.90;;;;;;5086788;28;20347;-77
2021/03/12 07:04:09;;;;;;;;;;;4.40;99.90;;;;;;5092516;28;20502;-76
2021/03/12 07:06:44;;;;;;;;;;;4.30;99.90;;;;;;5091659;28;20407;-77
2021/03/12 07:09:10;;;;;;;;;;;4.30;99.90;;;;;;5093297;28;19947;-77
2021/03/12 07:11:35;;;;;;;;;;;4.30;99.90;;;;;;5085676;28;19959;-77
2021/03/12 07:14:01;;;;;;;;;;;4.50;99.90;;;;;;5093137;28;19954;-77
2021/03/12 07:16:27;;;;;;;;;;;4.60;99.90;;;;;;5093142;28;20549;-77
2021/03/12 07:18:54;;;;;;;;;;;4.70;99.90;;;;;;5091894;28;19912;-77
2021/03/12 07:21:23;;;;;;;;;;;4.70;99.90;;;;;;5086684;28;20420;-75
2021/03/12 07:23:50;;;;;;;;;;;4.80;99.90;;;;;;5091717;28;19912;-77
2021/03/12 07:26:16;;;;;;;;;;;4.80;99.90;;;;;;5092837;28;19915;-76
2021/03/12 07:28:42;;;;;;;;;;;5.00;99.90;;;;;;5092286;28;20361;-77
2021/03/12 07:31:15;;;;;;;;;;;5.00;99.90;;;;;;5092512;28;19912;-77
2021/03/12 07:33:41;;;;;;;;;;;5.20;99.90;;;;;;5092889;28;19908;-77
2021/03/12 07:36:09;;;;;;;;;;;5.30;99.90;;;;;;5092210;28;19968;-77
2021/03/12 07:38:35;;;;;;;;;;;5.50;99.90;;;;;;5092544;28;19908;-77
2021/03/12 07:41:02;;;;;;;;;;;5.70;99.90;;;;;;5086652;28;19908;-77
2021/03/12 07:43:28;;;;;;;;;;;5.80;99.90;;;;;;5093276;28;19915;-77
2021/03/12 07:45:53;;;;;;;;;;;6.00;99.90;;;;;;5084598;28;20404;-77
2021/03/12 07:48:26;;;;;;;;;;;6.10;99.90;;;;;;5078740;28;19917;-77
2021/03/12 07:51:01;;;;;;;;;;;6.20;99.90;;;;;;5088449;28;19908;-77
2021/03/12 07:53:43;;;;;;;;;;;6.30;99.90;;;;;;5099453;28;19934;-78
2021/03/12 07:56:11;;;;;;;;;;;6.30;99.90;;;;;;5094949;28;20306;-76
2021/03/12 07:58:49;;;;;;;;;;;6.30;99.90;;;;;;5097696;28;20003;-76
2021/03/12 08:01:15;;;;;;;;;;;6.40;99.90;;;;;;5091585;28;19908;-77
2021/03/12 08:03:40;;;;;;;;;;;6.30;99.90;;;;;;5093528;28;19958;-77
2021/03/12 08:06:21;;;;;;;;;;;6.30;99.90;;;;;;5093249;28;19908;-76
2021/03/12 08:08:47;;;;;;;;;;;6.40;99.90;;;;;;5098079;28;20280;-77
2021/03/12 08:11:16;;;;;;;;;;;6.40;99.90;;;;;;5093682;28;19908;-77
2021/03/12 08:13:42;;;;;;;;;;;6.60;99.90;;;;;;5093094;28;19908;-78
2021/03/12 08:16:08;;;;;;;;;;;7.20;99.90;;;;;;5092289;28;19914;-78
2021/03/12 08:18:33;;;;;;;;;;;7.80;99.90;;;;;;5092953;28;19947;-78
2021/03/12 08:20:59;;;;;;;;;;;8.70;99.90;;;;;;5090799;28;19912;-76
2021/03/12 08:23:31;;;;;;;;;;;9.40;99.90;;;;;;5091004;28;19915;-78
2021/03/12 08:25:57;;;;;;;;;;;10.00;99.90;;;;;;5091938;28;19973;-78
2021/03/12 08:28:32;;;;;;;;;;;10.40;99.90;;;;;;5088623;28;20311;-78
2021/03/12 08:30:59;;;;;;;;;;;10.70;99.90;;;;;;5086453;28;19912;-78
2021/03/12 08:33:26;;;;;;;;;;;10.90;99.90;;;;;;5082473;28;19912;-78
2021/03/12 08:35:52;;;;;;;;;;;11.10;99.90;;;;;;5099088;28;19978;-77
2021/03/12 08:38:24;;;;;;;;;;;11.20;99.90;;;;;;5091655;28;19908;-78
2021/03/12 08:41:12;;;;;;;;;;;11.00;99.90;;;;;;5104950;28;19908;-78
2021/03/12 08:43:42;;;;;;;;;;;10.50;99.90;;;;;;5091572;28;20007;-78
2021/03/12 08:46:13;;;;;;;;;;;10.10;99.90;;;;;;5093395;28;19978;-78
2021/03/12 08:48:38;;;;;;;;;;;9.70;99.90;;;;;;5094358;28;19919;-78
2021/03/12 08:51:05;;;;;;;;;;;9.20;99.90;;;;;;5093971;28;19908;-78
2021/03/12 08:53:32;;;;;;;;;;;8.90;99.90;;;;;;5091748;28;19916;-77
2021/03/12 08:55:58;;;;;;;;;;;8.60;99.90;;;;;;5088254;28;20288;-76
2021/03/12 08:58:27;;;;;;;;;;;8.40;99.90;;;;;;5088437;28;19912;-77
2021/03/12 09:01:13;;;;;;;;;;;8.30;99.90;;;;;;5091946;28;20311;-78
2021/03/12 09:03:41;;;;;;;;;;;8.60;99.90;;;;;;5094528;28;20010;-78
2021/03/12 09:06:11;;;;;;;;;;;9.10;99.90;;;;;;5095192;28;19908;-78
2021/03/12 09:08:38;;;;;;;;;;;9.80;99.90;;;;;;5096100;28;19909;-79
2021/03/12 09:11:04;;;;;;;;;;;10.60;99.90;;;;;;5093800;28;19912;-79
2021/03/12 09:13:31;;;;;;;;;;;11.20;99.90;;;;;;5090938;28;20428;-78
2021/03/12 09:15:57;;;;;;;;;;;11.20;98.40;;;;;;5088353;28;19967;-78
2021/03/12 09:18:23;;;;;;;;;;;10.70;99.30;;;;;;5095860;28;20439;-78
2021/03/12 09:20:50;;;;;;;;;;;10.50;99.90;;;;;;5095429;28;19908;-78
2021/03/12 09:23:16;;;;;;;;;;;10.40;99.90;;;;;;5095148;28;19908;-79
2021/03/12 09:25:41;;;;;;;;;;;10.20;99.90;;;;;;5091923;28;19999;-79
2021/03/12 09:28:14;;;;;;;;;;;9.90;99.90;;;;;;5097798;28;20424;-78
2021/03/12 09:30:40;;;;;;;;;;;9.50;99.90;;;;;;5093912;28;19930;-78
2021/03/12 09:33:06;;;;;;;;;;;9.10;99.90;;;;;;5091623;28;19983;-76
2021/03/12 09:35:39;;;;;;;;;;;8.70;99.90;;;;;;5090215;28;19999;-78
2021/03/12 09:38:05;;;;;;;;;;;8.60;99.90;;;;;;5085891;28;20049;-78
2021/03/12 09:40:31;;;;;;;;;;;8.50;99.90;;;;;;5081525;28;20007;-77
2021/03/12 09:42:56;;;;;;;;;;;8.50;99.90;;;;;;5091251;28;19915;-78
2021/03/12 09:45:22;;;;;;;;;;;8.50;99.90;;;;;;5089719;28;19912;-78
2021/03/12 09:47:49;;;;;;;;;;;8.80;99.90;;;;;;5092666;28;20373;-78
2021/03/12 09:50:15;;;;;;;;;;;8.80;99.90;;;;;;5090909;28;19916;-78
2021/03/12 09:52:40;;;;;;;;;;;8.80;99.90;;;;;;5088596;28;20374;-78
2021/03/12 09:55:06;;;;;;;;;;;8.40;99.90;;;;;;5091229;28;19908;-78
2021/03/12 09:57:31;;;;;;;;;;;8.00;99.90;;;;;;5093078;28;19915;-77
2021/03/12 09:59:57;;;;;;;;;;;7.60;99.90;;;;;;5089767;28;19912;-78
2021/03/12 10:02:22;;;;;;;;;;;7.40;99.90;;;;;;5091010;28;19912;-78
2021/03/12 10:04:58;;;;;;;;;;;7.40;99.90;;;;;;5105887;28;19951;-77
2021/03/12 10:07:34;;;;;;;;;;;7.50;99.90;;;;;;5104246;28;19914;-77
2021/03/12 10:10:10;;;;;;;;;;;7.50;99.90;;;;;;5085117;28;19908;-77
2021/03/12 10:12:39;;;;;;;;;;;7.40;99.90;;;;;;5089016;28;19957;-77
2021/03/12 10:15:24;;;;;;;;;;;7.20;99.90;;;;;;5092409;28;20254;-77
2021/03/12 10:17:49;;;;;;;;;;;7.00;99.90;;;;;;5092122;28;19925;-79
2021/03/12 10:20:15;;;;;;;;;;;7.00;99.90;;;;;;5089889;28;19912;-77
2021/03/12 10:22:43;;;;;;;;;;;7.00;99.90;;;;;;5089138;28;19940;-78
2021/03/12 10:25:11;;;;;;;;;;;7.50;99.90;;;;;;5088466;28;20399;-78
2021/03/12 10:27:37;;;;;;;;;;;8.00;99.90;;;;;;5087852;28;19908;-77
2021/03/12 10:30:23;;;;;;;;;;;8.80;99.90;;;;;;5088673;28;19961;-77
2021/03/12 10:32:50;;;;;;;;;;;9.70;99.90;;;;;;5088951;28;19945;-77
2021/03/12 10:35:17;;;;;;;;;;;10.60;99.90;;;;;;5092812;28;19923;-80
2021/03/12 10:37:42;;;;;;;;;;;11.10;99.90;;;;;;5088965;28;19912;-77
2021/03/12 10:40:08;;;;;;;;;;;11.00;99.90;;;;;;5092173;28;19954;-78
2021/03/12 10:42:34;;;;;;;;;;;11.10;99.90;;;;;;5098144;28;19965;-80
2021/03/12 10:45:01;;;;;;;;;;;10.80;99.90;;;;;;5092449;28;19933;-76
2021/03/12 10:47:27;;;;;;;;;;;10.40;99.90;;;;;;5092647;28;19995;-78
2021/03/12 10:49:53;;;;;;;;;;;10.00;99.90;;;;;;5093025;28;19977;-76
2021/03/12 10:52:36;;;;;;;;;;;9.60;99.90;;;;;;5095549;28;19916;-78
2021/03/12 10:55:09;;;;;;;;;;;9.30;99.90;;;;;;5096400;28;19908;-78
2021/03/12 10:57:38;;;;;;;;;;;8.80;99.90;;;;;;5096777;28;20292;-80
2021/03/12 11:00:22;;;;;;;;;;;8.40;99.90;;;;;;5082658;28;19919;-78
2021/03/12 11:02:48;;;;;;;;;;;8.20;99.90;;;;;;5101615;28;20345;-78
2021/03/12 11:05:16;;;;;;;;;;;8.60;99.90;;;;;;5102482;28;20391;-78
2021/03/12 11:07:42;;;;;;;;;;;9.30;99.90;;;;;;5092412;28;20163;-78
2021/03/12 11:10:08;;;;;;;;;;;10.10;99.90;;;;;;5088811;28;19908;-78
2021/03/12 11:12:40;;;;;;;;;;;10.50;99.90;;;;;;5093518;28;19955;-77
2021/03/12 11:15:06;;;;;;;;;;;10.90;99.90;;;;;;5091165;28;19908;-77
2021/03/12 11:17:31;;;;;;;;;;;11.30;99.90;;;;;;5088829;28;19934;-77
2021/03/12 11:19:57;;;;;;;;;;;11.50;99.90;;;;;;5091454;28;19912;-77
2021/03/12 11:22:22;;;;;;;;;;;11.30;99.90;;;;;;5089910;28;20046;-76
2021/03/12 11:24:48;;;;;;;;;;;10.90;99.90;;;;;;5089862;28;19916;-76
2021/03/12 11:27:15;;;;;;;;;;;10.90;99.90;;;;;;5090814;28;19915;-77
2021/03/12 11:29:41;;;;;;;;;;;11.20;99.90;;;;;;5087373;28;20001;-77
2021/03/12 11:32:07;;;;;;;;;;;11.50;99.90;;;;;;5089553;28;20340;-78
2021/03/12 11:34:33;;;;;;;;;;;11.90;99.90;;;;;;5089249;28;20397;-77
2021/03/12 11:36:59;;;;;;;;;;;12.50;99.90;;;;;;5092306;28;20290;-77
2021/03/12 11:39:24;;;;;;;;;;;12.70;99.60;;;;;;5092342;28;19908;-77
2021/03/12 11:41:50;;;;;;;;;;;13.00;99.90;;;;;;5085581;28;19908;-77
2021/03/12 11:44:15;;;;;;;;;;;13.50;99.10;;;;;;5091721;28;19915;-80
2021/03/12 11:46:41;;;;;;;;;;;13.70;98.40;;;;;;5092829;28;19908;-79
2021/03/12 11:49:06;;;;;;;;;;;13.70;98.40;;;;;;5090325;28;19916;-77
2021/03/12 11:51:33;;;;;;;;;;;13.30;98.30;;;;;;5100569;28;19920;-77
2021/03/12 11:53:58;;;;;;;;;;;12.80;98.20;;;;;;5092383;28;19916;-77
2021/03/12 11:56:24;;;;;;;;;;;12.70;97.70;;;;;;5089599;28;19915;-79
2021/03/12 11:58:51;;;;;;;;;;;12.60;98.80;;;;;;5092636;28;19916;-77
2021/03/12 12:01:16;;;;;;;;;;;12.50;98.70;;;;;;5091099;28;19999;-77
2021/03/12 12:03:42;;;;;;;;;;;12.50;99.20;;;;;;5089973;28;20019;-79
2021/03/12 12:06:07;;;;;;;;;;;12.50;98.40;;;;;;5086312;28;19916;-77
2021/03/12 12:08:33;;;;;;;;;;;12.40;98.60;;;;;;5087159;28;20089;-77
2021/03/12 12:10:58;;;;;;;;;;;12.10;98.60;;;;;;5087865;28;19908;-77
2021/03/12 12:13:24;;;;;;;;;;;11.70;97.90;;;;;;5090305;28;20011;-76
2021/03/12 12:15:51;;;;;;;;;;;11.20;97.60;;;;;;5093715;28;19908;-76
2021/03/12 12:18:17;;;;;;;;;;;10.70;99.10;;;;;;5091721;28;19915;-77
2021/03/12 12:20:43;;;;;;;;;;;10.10;99.50;;;;;;5087624;28;19908;-78
2021/03/12 12:23:09;;;;;;;;;;;9.60;99.90;;;;;;5089708;28;20361;-77
2021/03/12 12:25:35;;;;;;;;;;;9.50;99.90;;;;;;5085976;28;20011;-77
2021/03/12 12:28:00;;;;;;;;;;;9.30;99.90;;;;;;5085863;28;20402;-80
2021/03/12 12:30:26;;;;;;;;;;;9.30;99.90;;;;;;5101520;28;19911;-77
2021/03/12 12:32:51;;;;;;;;;;;9.20;99.90;;;;;;5079009;28;19916;-77
2021/03/12 12:35:17;;;;;;;;;;;9.10;99.90;;;;;;5095370;28;20384;-77
2021/03/12 12:37:42;;;;;;;;;;;9.10;99.90;;;;;;5097098;28;19912;-76
2021/03/12 12:40:08;;;;;;;;;;;9.10;99.90;;;;;;5085758;28;19940;-76
2021/03/12 12:42:33;;;;;;;;;;;9.00;99.90;;;;;;5089442;28;19915;-79
2021/03/12 12:44:59;;;;;;;;;;;9.00;99.90;;;;;;5089288;28;19948;-77
2021/03/12 12:47:25;;;;;;;;;;;9.00;99.90;;;;;;5088858;28;19909;-82
2021/03/12 12:49:50;;;;;;;;;;;9.10;99.90;;;;;;5092494;28;19923;-77
2021/03/12 12:52:16;;;;;;;;;;;9.20;99.90;;;;;;5093857;28;19959;-77
2021/03/12 12:54:41;;;;;;;;;;;9.20;99.90;;;;;;5089956;28;20446;-77
2021/03/12 12:57:07;;;;;;;;;;;9.20;99.90;;;;;;5089513;28;19962;-79
2021/03/12 12:59:33;;;;;;;;;;;9.20;99.20;;;;;;5078898;28;19976;-78
2021/03/12 13:01:58;;;;;;;;;;;9.00;99.80;;;;;;5088203;28;19912;-78
2021/03/12 13:04:24;;;;;;;;;;;9.00;98.80;;;;;;5091135;28;19908;-78
2021/03/12 13:06:49;;;;;;;;;;;9.00;98.50;;;;;;5089857;28;19908;-78
2021/03/12 13:09:15;;;;;;;;;;;9.00;98.90;;;;;;5091413;28;20003;-77
2021/03/12 13:11:40;;;;;;;;;;;9.00;97.70;;;;;;5082717;28;19912;-78
2021/03/12 13:14:06;;;;;;;;;;;9.00;98.70;;;;;;5091067;28;20365;-78
2021/03/12 13:16:32;;;;;;;;;;;9.00;98.70;;;;;;5092005;28;20357;-78
2021/03/12 13:18:57;;;;;;;;;;;9.20;99.20;;;;;;5093918;28;20008;-78
2021/03/12 13:21:23;;;;;;;;;;;9.30;98.10;;;;;;5095316;28;19912;-78
2021/03/12 13:23:48;;;;;;;;;;;9.40;96.60;;;;;;5095409;28;19908;-77
2021/03/12 13:26:14;;;;;;;;;;;9.40;96.30;;;;;;5094793;28;20422;-78
2021/03/12 13:28:41;;;;;;;;;;;9.40;96.00;;;;;;5092073;28;19912;-78
2021/03/12 13:31:06;;;;;;;;;;;9.40;94.90;;;;;;5092031;28;20321;-78
2021/03/12 13:33:32;;;;;;;;;;;9.40;95.70;;;;;;5091338;28;20237;-78
2021/03/12 13:35:57;;;;;;;;;;;9.40;95.70;;;;;;5092729;28;20170;-78
2021/03/12 13:38:24;;;;;;;;;;;9.40;95.60;;;;;;5092989;28;19918;-78
2021/03/12 13:40:51;;;;;;;;;;;9.30;95.60;;;;;;5084535;28;19908;-78
2021/03/12 13:43:16;;;;;;;;;;;9.30;95.20;;;;;;5094509;28;19934;-78
2021/03/12 13:45:42;;;;;;;;;;;9.30;94.90;;;;;;5092012;28;20380;-78
2021/03/12 13:48:09;;;;;;;;;;;9.30;94.80;;;;;;5091335;28;19916;-78
2021/03/12 13:50:37;;;;;;;;;;;9.30;94.80;;;;;;5089564;28;19920;-78
2021/03/12 13:53:02;;;;;;;;;;;9.20;95.00;;;;;;5089772;28;19923;-78
2021/03/12 13:55:28;;;;;;;;;;;9.20;95.30;;;;;;5093328;28;19908;-78
2021/03/12 13:57:53;;;;;;;;;;;9.20;95.00;;;;;;5089125;28;19926;-78
2021/03/12 14:00:19;;;;;;;;;;;9.20;94.80;;;;;;5091571;28;19908;-78
2021/03/12 14:02:45;;;;;;;;;;;9.30;94.80;;;;;;5091540;28;19977;-78
2021/03/12 14:05:11;;;;;;;;;;;9.30;95.50;;;;;;5104064;28;19912;-78
2021/03/12 14:07:37;;;;;;;;;;;9.40;95.40;;;;;;5090486;28;19942;-79
2021/03/12 14:10:03;;;;;;;;;;;9.40;96.00;;;;;;5091864;28;20006;-78
2021/03/12 14:12:29;;;;;;;;;;;9.50;96.40;;;;;;5093012;28;19974;-79
2021/03/12 14:14:54;;;;;;;;;;;9.60;95.80;;;;;;5091636;28;20377;-78
2021/03/12 14:17:20;;;;;;;;;;;9.60;96.30;;;;;;5091318;28;20365;-78
2021/03/12 14:19:45;;;;;;;;;;;9.60;96.50;;;;;;5091821;28;19908;-77
2021/03/12 14:22:11;;;;;;;;;;;9.60;96.00;;;;;;5092076;28;19995;-82
2021/03/12 14:24:37;;;;;;;;;;;9.60;96.00;;;;;;5092793;28;19908;-77
2021/03/12 14:27:02;;;;;;;;;;;9.50;95.10;;;;;;5092580;28;19912;-78